sensor_id;sensor_type;location;lat;lon;timestamp;P1;durP1;ratioP1;P2;durP2;ratioP2
42700;SDS011;28316;49.504;8.526;2023-09-08T00:02:08;3.45;;;2.00;;
42700;SDS011;28316;49.504;8.526;2023-09-08T00:04:35;4.90;;;2.40;;
42700;SDS011;28316;49.504;8.526;2023-09-08T00:07:00;4.78;;;2.20;;
42700;SDS011;28316;49.504;8.526;2023-09-08T00:09:26;4.38;;;1.92;;
42700;SDS011;28316;49.504;8.526;2023-09-08T00:11:52;5.20;;;2.60;;
42700;SDS011;28316;49.504;8.526;2023-09-08T00:14:19;9.10;;;2.58;;
42700;SDS011;28316;49.504;8.526;2023-09-08T00:16:45;3.97;;;2.50;;
42700;SDS011;28316;49.504;8.526;2023-09-08T00:19:11;4.10;;;2.72;;
42700;SDS011;28316;49.504;8.526;2023-09-08T00:21:37;6.28;;;2.60;;
42700;SDS011;28316;49.504;8.526;2023-09-08T00:24:06;3.58;;;2.10;;
42700;SDS011;28316;49.504;8.526;2023-09-08T00:26:32;5.13;;;2.60;;
42700;SDS011;28316;49.504;8.526;2023-09-08T00:28:58;3.63;;;2.08;;
42700;SDS011;28316;49.504;8.526;2023-09-08T00:31:24;5.72;;;2.67;;
42700;SDS011;28316;49.504;8.526;2023-09-08T00:33:49;7.57;;;2.85;;
42700;SDS011;28316;49.504;8.526;2023-09-08T00:36:15;4.40;;;2.20;;
42700;SDS011;28316;49.504;8.526;2023-09-08T00:38:41;6.55;;;2.47;;
42700;SDS011;28316;49.504;8.526;2023-09-08T00:41:07;4.22;;;2.50;;
42700;SDS011;28316;49.504;8.526;2023-09-08T00:43:33;5.78;;;2.60;;
42700;SDS011;28316;49.504;8.526;2023-09-08T00:45:58;4.70;;;2.55;;
42700;SDS011;28316;49.504;8.526;2023-09-08T00:48:27;4.63;;;2.78;;
42700;SDS011;28316;49.504;8.526;2023-09-08T00:50:54;5.10;;;2.60;;
42700;SDS011;28316;49.504;8.526;2023-09-08T00:53:21;10.30;;;2.75;;
42700;SDS011;28316;49.504;8.526;2023-09-08T00:55:47;6.57;;;2.78;;
42700;SDS011;28316;49.504;8.526;2023-09-08T00:58:14;3.90;;;2.28;;
42700;SDS011;28316;49.504;8.526;2023-09-08T01:00:40;4.78;;;2.28;;
42700;SDS011;28316;49.504;8.526;2023-09-08T01:03:05;4.30;;;2.25;;
42700;SDS011;28316;49.504;8.526;2023-09-08T01:05:31;4.55;;;2.80;;
42700;SDS011;28316;49.504;8.526;2023-09-08T01:07:57;7.18;;;2.90;;
42700;SDS011;28316;49.504;8.526;2023-09-08T01:10:25;5.85;;;2.70;;
42700;SDS011;28316;49.504;8.526;2023-09-08T01:12:51;8.95;;;2.22;;
42700;SDS011;28316;49.504;8.526;2023-09-08T01:15:17;5.50;;;3.17;;
42700;SDS011;28316;49.504;8.526;2023-09-08T01:17:43;7.20;;;2.75;;
42700;SDS011;28316;49.504;8.526;2023-09-08T01:20:13;6.45;;;3.30;;
42700;SDS011;28316;49.504;8.526;2023-09-08T01:25:46;4.88;;;2.70;;
42700;SDS011;28316;49.504;8.526;2023-09-08T01:28:22;6.25;;;2.42;;
42700;SDS011;28316;49.504;8.526;2023-09-08T01:30:48;5.78;;;3.00;;
42700;SDS011;28316;49.504;8.526;2023-09-08T01:33:15;4.45;;;2.30;;
42700;SDS011;28316;49.504;8.526;2023-09-08T01:35:43;5.65;;;2.83;;
42700;SDS011;28316;49.504;8.526;2023-09-08T01:38:09;5.18;;;3.00;;
42700;SDS011;28316;49.504;8.526;2023-09-08T01:40:34;4.30;;;2.55;;
42700;SDS011;28316;49.504;8.526;2023-09-08T01:43:00;5.05;;;2.10;;
42700;SDS011;28316;49.504;8.526;2023-09-08T01:45:26;6.43;;;3.10;;
42700;SDS011;28316;49.504;8.526;2023-09-08T01:47:52;4.85;;;2.85;;
42700;SDS011;28316;49.504;8.526;2023-09-08T01:50:17;6.10;;;3.40;;
42700;SDS011;28316;49.504;8.526;2023-09-08T01:52:47;5.72;;;2.65;;
42700;SDS011;28316;49.504;8.526;2023-09-08T01:55:14;5.88;;;3.50;;
42700;SDS011;28316;49.504;8.526;2023-09-08T01:57:41;4.32;;;3.08;;
42700;SDS011;28316;49.504;8.526;2023-09-08T02:00:08;7.60;;;3.00;;
42700;SDS011;28316;49.504;8.526;2023-09-08T02:02:36;6.90;;;2.70;;
42700;SDS011;28316;49.504;8.526;2023-09-08T02:05:02;8.80;;;3.30;;
42700;SDS011;28316;49.504;8.526;2023-09-08T02:07:28;6.85;;;2.92;;
42700;SDS011;28316;49.504;8.526;2023-09-08T02:09:54;6.97;;;2.90;;
42700;SDS011;28316;49.504;8.526;2023-09-08T02:12:20;5.45;;;3.03;;
42700;SDS011;28316;49.504;8.526;2023-09-08T02:14:46;7.18;;;3.67;;
42700;SDS011;28316;49.504;8.526;2023-09-08T02:17:12;6.40;;;3.55;;
42700;SDS011;28316;49.504;8.526;2023-09-08T02:19:38;5.03;;;2.80;;
42700;SDS011;28316;49.504;8.526;2023-09-08T02:22:04;5.15;;;2.92;;
42700;SDS011;28316;49.504;8.526;2023-09-08T02:24:29;11.52;;;3.28;;
42700;SDS011;28316;49.504;8.526;2023-09-08T02:26:55;6.95;;;3.13;;
42700;SDS011;28316;49.504;8.526;2023-09-08T02:29:21;8.57;;;3.13;;
42700;SDS011;28316;49.504;8.526;2023-09-08T02:31:47;7.20;;;3.42;;
42700;SDS011;28316;49.504;8.526;2023-09-08T02:34:13;5.95;;;2.88;;
42700;SDS011;28316;49.504;8.526;2023-09-08T02:36:39;11.02;;;4.25;;
42700;SDS011;28316;49.504;8.526;2023-09-08T02:39:05;7.55;;;3.97;;
42700;SDS011;28316;49.504;8.526;2023-09-08T02:41:32;5.93;;;3.13;;
42700;SDS011;28316;49.504;8.526;2023-09-08T02:43:58;5.53;;;3.17;;
42700;SDS011;28316;49.504;8.526;2023-09-08T02:46:24;6.60;;;3.00;;
42700;SDS011;28316;49.504;8.526;2023-09-08T02:48:50;7.53;;;3.20;;
42700;SDS011;28316;49.504;8.526;2023-09-08T02:51:17;6.63;;;3.25;;
42700;SDS011;28316;49.504;8.526;2023-09-08T02:53:43;7.75;;;3.60;;
42700;SDS011;28316;49.504;8.526;2023-09-08T02:56:09;9.30;;;3.80;;
42700;SDS011;28316;49.504;8.526;2023-09-08T02:58:35;4.85;;;3.38;;
42700;SDS011;28316;49.504;8.526;2023-09-08T03:01:11;8.85;;;3.30;;
42700;SDS011;28316;49.504;8.526;2023-09-08T03:03:41;5.55;;;3.05;;
42700;SDS011;28316;49.504;8.526;2023-09-08T03:06:08;9.45;;;3.67;;
42700;SDS011;28316;49.504;8.526;2023-09-08T03:08:34;6.95;;;3.70;;
42700;SDS011;28316;49.504;8.526;2023-09-08T03:11:02;9.82;;;2.95;;
42700;SDS011;28316;49.504;8.526;2023-09-08T03:13:29;8.98;;;3.85;;
42700;SDS011;28316;49.504;8.526;2023-09-08T03:15:55;8.00;;;4.25;;
42700;SDS011;28316;49.504;8.526;2023-09-08T03:18:22;10.35;;;4.13;;
42700;SDS011;28316;49.504;8.526;2023-09-08T03:20:48;5.95;;;3.20;;
42700;SDS011;28316;49.504;8.526;2023-09-08T03:23:15;6.57;;;2.80;;
42700;SDS011;28316;49.504;8.526;2023-09-08T03:25:41;7.53;;;3.47;;
42700;SDS011;28316;49.504;8.526;2023-09-08T03:28:08;6.47;;;3.13;;
42700;SDS011;28316;49.504;8.526;2023-09-08T03:30:34;11.10;;;3.70;;
42700;SDS011;28316;49.504;8.526;2023-09-08T03:33:00;10.18;;;3.90;;
42700;SDS011;28316;49.504;8.526;2023-09-08T03:35:26;9.45;;;3.97;;
42700;SDS011;28316;49.504;8.526;2023-09-08T03:37:51;7.68;;;3.80;;
42700;SDS011;28316;49.504;8.526;2023-09-08T03:40:17;6.35;;;3.22;;
42700;SDS011;28316;49.504;8.526;2023-09-08T03:42:43;8.77;;;4.22;;
42700;SDS011;28316;49.504;8.526;2023-09-08T03:45:08;8.38;;;3.65;;
42700;SDS011;28316;49.504;8.526;2023-09-08T03:47:34;6.55;;;3.80;;
42700;SDS011;28316;49.504;8.526;2023-09-08T03:50:00;8.75;;;3.60;;
42700;SDS011;28316;49.504;8.526;2023-09-08T03:52:26;6.35;;;3.40;;
42700;SDS011;28316;49.504;8.526;2023-09-08T03:54:52;8.80;;;3.35;;
42700;SDS011;28316;49.504;8.526;2023-09-08T03:57:18;6.80;;;3.15;;
42700;SDS011;28316;49.504;8.526;2023-09-08T03:59:43;10.25;;;3.63;;
42700;SDS011;28316;49.504;8.526;2023-09-08T04:02:09;10.38;;;3.83;;
42700;SDS011;28316;49.504;8.526;2023-09-08T04:04:35;9.05;;;3.88;;
42700;SDS011;28316;49.504;8.526;2023-09-08T04:07:00;7.28;;;3.33;;
42700;SDS011;28316;49.504;8.526;2023-09-08T04:09:26;10.23;;;4.13;;
42700;SDS011;28316;49.504;8.526;2023-09-08T04:11:53;13.32;;;3.47;;
42700;SDS011;28316;49.504;8.526;2023-09-08T04:14:20;7.85;;;3.28;;
42700;SDS011;28316;49.504;8.526;2023-09-08T04:16:48;6.97;;;2.78;;
42700;SDS011;28316;49.504;8.526;2023-09-08T04:19:14;13.23;;;4.28;;
42700;SDS011;28316;49.504;8.526;2023-09-08T04:21:40;8.45;;;3.83;;
42700;SDS011;28316;49.504;8.526;2023-09-08T04:24:06;10.35;;;3.80;;
42700;SDS011;28316;49.504;8.526;2023-09-08T04:26:35;6.18;;;3.85;;
42700;SDS011;28316;49.504;8.526;2023-09-08T04:29:01;7.95;;;3.97;;
42700;SDS011;28316;49.504;8.526;2023-09-08T04:31:27;11.82;;;4.60;;
42700;SDS011;28316;49.504;8.526;2023-09-08T04:33:53;10.30;;;4.28;;
42700;SDS011;28316;49.504;8.526;2023-09-08T04:36:19;6.07;;;3.10;;
42700;SDS011;28316;49.504;8.526;2023-09-08T04:38:45;6.97;;;3.55;;
42700;SDS011;28316;49.504;8.526;2023-09-08T04:41:10;8.45;;;4.30;;
42700;SDS011;28316;49.504;8.526;2023-09-08T04:43:36;6.30;;;3.13;;
42700;SDS011;28316;49.504;8.526;2023-09-08T04:46:02;6.43;;;3.70;;
42700;SDS011;28316;49.504;8.526;2023-09-08T04:48:28;6.85;;;3.63;;
42700;SDS011;28316;49.504;8.526;2023-09-08T04:50:56;7.65;;;4.05;;
42700;SDS011;28316;49.504;8.526;2023-09-08T04:53:22;8.60;;;4.47;;
42700;SDS011;28316;49.504;8.526;2023-09-08T04:55:48;7.68;;;4.20;;
42700;SDS011;28316;49.504;8.526;2023-09-08T04:58:13;8.20;;;3.92;;
42700;SDS011;28316;49.504;8.526;2023-09-08T05:00:39;5.97;;;3.63;;
42700;SDS011;28316;49.504;8.526;2023-09-08T05:03:05;13.95;;;3.47;;
42700;SDS011;28316;49.504;8.526;2023-09-08T05:05:31;7.25;;;4.05;;
42700;SDS011;28316;49.504;8.526;2023-09-08T05:07:56;9.68;;;3.67;;
42700;SDS011;28316;49.504;8.526;2023-09-08T05:10:22;5.93;;;3.85;;
42700;SDS011;28316;49.504;8.526;2023-09-08T05:12:50;6.80;;;3.65;;
42700;SDS011;28316;49.504;8.526;2023-09-08T05:15:16;7.68;;;3.90;;
42700;SDS011;28316;49.504;8.526;2023-09-08T05:17:42;9.80;;;3.83;;
42700;SDS011;28316;49.504;8.526;2023-09-08T05:20:09;6.88;;;3.70;;
42700;SDS011;28316;49.504;8.526;2023-09-08T05:22:35;7.47;;;4.13;;
42700;SDS011;28316;49.504;8.526;2023-09-08T05:25:01;6.38;;;3.47;;
42700;SDS011;28316;49.504;8.526;2023-09-08T05:27:28;7.22;;;3.60;;
42700;SDS011;28316;49.504;8.526;2023-09-08T05:29:54;7.97;;;4.40;;
42700;SDS011;28316;49.504;8.526;2023-09-08T05:32:20;6.65;;;3.67;;
42700;SDS011;28316;49.504;8.526;2023-09-08T05:34:45;7.05;;;4.03;;
42700;SDS011;28316;49.504;8.526;2023-09-08T05:37:11;7.43;;;3.95;;
42700;SDS011;28316;49.504;8.526;2023-09-08T05:39:37;4.97;;;3.50;;
42700;SDS011;28316;49.504;8.526;2023-09-08T05:42:03;9.32;;;3.38;;
42700;SDS011;28316;49.504;8.526;2023-09-08T05:44:29;9.45;;;3.05;;
42700;SDS011;28316;49.504;8.526;2023-09-08T05:46:54;7.32;;;3.83;;
42700;SDS011;28316;49.504;8.526;2023-09-08T05:49:20;9.15;;;4.90;;
42700;SDS011;28316;49.504;8.526;2023-09-08T05:51:46;9.70;;;3.75;;
42700;SDS011;28316;49.504;8.526;2023-09-08T05:54:12;5.13;;;3.65;;
42700;SDS011;28316;49.504;8.526;2023-09-08T05:56:38;10.00;;;4.60;;
42700;SDS011;28316;49.504;8.526;2023-09-08T05:59:03;6.20;;;3.47;;
42700;SDS011;28316;49.504;8.526;2023-09-08T06:01:30;7.25;;;3.92;;
42700;SDS011;28316;49.504;8.526;2023-09-08T06:03:56;8.10;;;4.20;;
42700;SDS011;28316;49.504;8.526;2023-09-08T06:06:22;8.88;;;4.20;;
42700;SDS011;28316;49.504;8.526;2023-09-08T06:08:48;9.40;;;4.63;;
42700;SDS011;28316;49.504;8.526;2023-09-08T06:11:14;6.80;;;3.53;;
42700;SDS011;28316;49.504;8.526;2023-09-08T06:13:39;6.72;;;4.22;;
42700;SDS011;28316;49.504;8.526;2023-09-08T06:16:05;8.48;;;3.17;;
42700;SDS011;28316;49.504;8.526;2023-09-08T06:18:31;7.43;;;3.38;;
42700;SDS011;28316;49.504;8.526;2023-09-08T06:20:57;6.70;;;3.70;;
42700;SDS011;28316;49.504;8.526;2023-09-08T06:23:23;9.38;;;4.15;;
42700;SDS011;28316;49.504;8.526;2023-09-08T06:25:49;6.90;;;3.53;;
42700;SDS011;28316;49.504;8.526;2023-09-08T06:28:15;8.02;;;3.95;;
42700;SDS011;28316;49.504;8.526;2023-09-08T06:30:40;8.23;;;3.60;;
42700;SDS011;28316;49.504;8.526;2023-09-08T06:33:10;7.85;;;3.95;;
42700;SDS011;28316;49.504;8.526;2023-09-08T06:35:35;5.38;;;3.42;;
42700;SDS011;28316;49.504;8.526;2023-09-08T06:38:01;11.00;;;4.05;;
42700;SDS011;28316;49.504;8.526;2023-09-08T06:40:29;7.75;;;3.97;;
42700;SDS011;28316;49.504;8.526;2023-09-08T06:42:55;8.90;;;3.80;;
42700;SDS011;28316;49.504;8.526;2023-09-08T06:45:21;6.70;;;3.30;;
42700;SDS011;28316;49.504;8.526;2023-09-08T06:47:47;8.98;;;3.65;;
42700;SDS011;28316;49.504;8.526;2023-09-08T06:50:15;13.68;;;3.70;;
42700;SDS011;28316;49.504;8.526;2023-09-08T06:52:41;6.80;;;4.03;;
42700;SDS011;28316;49.504;8.526;2023-09-08T06:55:07;6.40;;;3.35;;
42700;SDS011;28316;49.504;8.526;2023-09-08T06:57:32;6.45;;;3.53;;
42700;SDS011;28316;49.504;8.526;2023-09-08T06:59:58;6.05;;;3.53;;
42700;SDS011;28316;49.504;8.526;2023-09-08T07:02:24;6.60;;;3.67;;
42700;SDS011;28316;49.504;8.526;2023-09-08T07:04:49;6.28;;;3.35;;
42700;SDS011;28316;49.504;8.526;2023-09-08T07:07:16;7.70;;;3.47;;
42700;SDS011;28316;49.504;8.526;2023-09-08T07:09:43;8.85;;;3.03;;
42700;SDS011;28316;49.504;8.526;2023-09-08T07:12:08;6.05;;;3.35;;
42700;SDS011;28316;49.504;8.526;2023-09-08T07:14:34;7.68;;;4.07;;
42700;SDS011;28316;49.504;8.526;2023-09-08T07:17:00;8.43;;;3.28;;
42700;SDS011;28316;49.504;8.526;2023-09-08T07:19:26;6.07;;;3.53;;
42700;SDS011;28316;49.504;8.526;2023-09-08T07:21:52;7.35;;;4.18;;
42700;SDS011;28316;49.504;8.526;2023-09-08T07:24:18;6.20;;;3.15;;
42700;SDS011;28316;49.504;8.526;2023-09-08T07:26:44;6.38;;;3.45;;
42700;SDS011;28316;49.504;8.526;2023-09-08T07:29:09;12.10;;;4.20;;
42700;SDS011;28316;49.504;8.526;2023-09-08T07:31:36;7.85;;;3.85;;
42700;SDS011;28316;49.504;8.526;2023-09-08T07:34:03;6.93;;;3.83;;
42700;SDS011;28316;49.504;8.526;2023-09-08T07:36:29;11.85;;;3.58;;
42700;SDS011;28316;49.504;8.526;2023-09-08T07:38:55;7.63;;;3.63;;
42700;SDS011;28316;49.504;8.526;2023-09-08T07:41:20;7.97;;;3.70;;
42700;SDS011;28316;49.504;8.526;2023-09-08T07:43:46;6.15;;;2.85;;
42700;SDS011;28316;49.504;8.526;2023-09-08T07:46:12;7.32;;;3.47;;
42700;SDS011;28316;49.504;8.526;2023-09-08T07:48:37;5.40;;;2.58;;
42700;SDS011;28316;49.504;8.526;2023-09-08T07:51:03;8.50;;;3.30;;
42700;SDS011;28316;49.504;8.526;2023-09-08T07:53:29;9.85;;;3.15;;
42700;SDS011;28316;49.504;8.526;2023-09-08T07:55:55;8.48;;;3.15;;
42700;SDS011;28316;49.504;8.526;2023-09-08T07:58:21;5.35;;;2.33;;
42700;SDS011;28316;49.504;8.526;2023-09-08T08:00:47;5.30;;;2.50;;
42700;SDS011;28316;49.504;8.526;2023-09-08T08:03:13;11.27;;;3.22;;
42700;SDS011;28316;49.504;8.526;2023-09-08T08:05:39;6.05;;;2.67;;
42700;SDS011;28316;49.504;8.526;2023-09-08T08:08:04;8.63;;;3.15;;
42700;SDS011;28316;49.504;8.526;2023-09-08T08:10:31;4.05;;;2.33;;
42700;SDS011;28316;49.504;8.526;2023-09-08T08:12:57;5.03;;;2.53;;
42700;SDS011;28316;49.504;8.526;2023-09-08T08:15:33;7.35;;;3.05;;
42700;SDS011;28316;49.504;8.526;2023-09-08T08:18:05;5.32;;;2.65;;
42700;SDS011;28316;49.504;8.526;2023-09-08T08:20:32;5.90;;;2.70;;
42700;SDS011;28316;49.504;8.526;2023-09-08T08:23:06;7.88;;;2.30;;
42700;SDS011;28316;49.504;8.526;2023-09-08T08:25:32;5.28;;;2.88;;
42700;SDS011;28316;49.504;8.526;2023-09-08T08:27:58;5.63;;;2.70;;
42700;SDS011;28316;49.504;8.526;2023-09-08T08:30:26;8.85;;;2.50;;
42700;SDS011;28316;49.504;8.526;2023-09-08T08:32:52;5.60;;;2.75;;
42700;SDS011;28316;49.504;8.526;2023-09-08T08:35:18;5.63;;;2.88;;
42700;SDS011;28316;49.504;8.526;2023-09-08T08:37:45;6.10;;;2.20;;
42700;SDS011;28316;49.504;8.526;2023-09-08T08:40:11;6.65;;;2.67;;
42700;SDS011;28316;49.504;8.526;2023-09-08T08:42:37;5.80;;;2.65;;
42700;SDS011;28316;49.504;8.526;2023-09-08T08:45:04;4.82;;;2.72;;
42700;SDS011;28316;49.504;8.526;2023-09-08T08:47:31;3.85;;;2.55;;
42700;SDS011;28316;49.504;8.526;2023-09-08T08:49:57;8.00;;;2.67;;
42700;SDS011;28316;49.504;8.526;2023-09-08T08:52:28;5.30;;;2.63;;
42700;SDS011;28316;49.504;8.526;2023-09-08T08:54:54;5.00;;;2.70;;
42700;SDS011;28316;49.504;8.526;2023-09-08T08:57:21;5.45;;;2.40;;
42700;SDS011;28316;49.504;8.526;2023-09-08T08:59:48;5.68;;;2.83;;
42700;SDS011;28316;49.504;8.526;2023-09-08T09:02:18;7.07;;;2.90;;
42700;SDS011;28316;49.504;8.526;2023-09-08T09:04:46;5.50;;;3.08;;
42700;SDS011;28316;49.504;8.526;2023-09-08T09:07:12;4.90;;;2.55;;
42700;SDS011;28316;49.504;8.526;2023-09-08T09:09:38;6.45;;;2.80;;
42700;SDS011;28316;49.504;8.526;2023-09-08T09:12:05;5.13;;;2.40;;
42700;SDS011;28316;49.504;8.526;2023-09-08T09:14:32;5.90;;;2.53;;
42700;SDS011;28316;49.504;8.526;2023-09-08T09:16:59;5.57;;;2.47;;
42700;SDS011;28316;49.504;8.526;2023-09-08T09:19:26;3.50;;;1.98;;
42700;SDS011;28316;49.504;8.526;2023-09-08T09:21:54;7.32;;;2.58;;
42700;SDS011;28316;49.504;8.526;2023-09-08T09:24:36;9.45;;;2.50;;
42700;SDS011;28316;49.504;8.526;2023-09-08T09:27:11;5.20;;;2.83;;
42700;SDS011;28316;49.504;8.526;2023-09-08T09:29:47;7.28;;;2.95;;
42700;SDS011;28316;49.504;8.526;2023-09-08T09:32:15;7.20;;;2.67;;
42700;SDS011;28316;49.504;8.526;2023-09-08T09:34:48;4.65;;;2.30;;
42700;SDS011;28316;49.504;8.526;2023-09-08T09:37:18;5.80;;;2.50;;
42700;SDS011;28316;49.504;8.526;2023-09-08T09:39:48;7.97;;;3.15;;
42700;SDS011;28316;49.504;8.526;2023-09-08T09:42:16;5.13;;;2.42;;
42700;SDS011;28316;49.504;8.526;2023-09-08T09:44:42;7.50;;;2.78;;
42700;SDS011;28316;49.504;8.526;2023-09-08T09:47:08;8.45;;;2.55;;
42700;SDS011;28316;49.504;8.526;2023-09-08T09:49:44;5.60;;;2.50;;
42700;SDS011;28316;49.504;8.526;2023-09-08T09:52:12;3.80;;;2.10;;
42700;SDS011;28316;49.504;8.526;2023-09-08T09:54:45;4.47;;;2.70;;
42700;SDS011;28316;49.504;8.526;2023-09-08T09:57:11;5.18;;;3.08;;
42700;SDS011;28316;49.504;8.526;2023-09-08T09:59:42;5.10;;;2.35;;
42700;SDS011;28316;49.504;8.526;2023-09-08T10:02:10;5.72;;;2.55;;
42700;SDS011;28316;49.504;8.526;2023-09-08T10:04:42;5.03;;;2.60;;
42700;SDS011;28316;49.504;8.526;2023-09-08T10:07:11;5.18;;;2.55;;
42700;SDS011;28316;49.504;8.526;2023-09-08T10:09:37;5.30;;;2.35;;
42700;SDS011;28316;49.504;8.526;2023-09-08T10:12:03;4.88;;;2.85;;
42700;SDS011;28316;49.504;8.526;2023-09-08T10:14:31;4.53;;;1.98;;
42700;SDS011;28316;49.504;8.526;2023-09-08T10:17:00;4.90;;;2.10;;
42700;SDS011;28316;49.504;8.526;2023-09-08T10:19:27;8.65;;;2.45;;
42700;SDS011;28316;49.504;8.526;2023-09-08T10:22:00;3.97;;;1.98;;
42700;SDS011;28316;49.504;8.526;2023-09-08T10:24:29;5.28;;;2.92;;
42700;SDS011;28316;49.504;8.526;2023-09-08T10:27:10;3.17;;;1.83;;
42700;SDS011;28316;49.504;8.526;2023-09-08T10:29:37;3.70;;;1.80;;
42700;SDS011;28316;49.504;8.526;2023-09-08T10:32:04;4.20;;;2.22;;
42700;SDS011;28316;49.504;8.526;2023-09-08T10:34:33;8.05;;;2.15;;
42700;SDS011;28316;49.504;8.526;2023-09-08T10:37:01;5.60;;;2.92;;
42700;SDS011;28316;49.504;8.526;2023-09-08T10:39:35;4.50;;;1.98;;
42700;SDS011;28316;49.504;8.526;2023-09-08T10:47:14;6.93;;;2.08;;
42700;SDS011;28316;49.504;8.526;2023-09-08T10:49:51;5.32;;;2.42;;
42700;SDS011;28316;49.504;8.526;2023-09-08T10:52:23;4.63;;;2.30;;
42700;SDS011;28316;49.504;8.526;2023-09-08T10:54:50;4.80;;;2.10;;
42700;SDS011;28316;49.504;8.526;2023-09-08T10:57:20;5.13;;;1.77;;
42700;SDS011;28316;49.504;8.526;2023-09-08T11:05:03;6.68;;;2.92;;
42700;SDS011;28316;49.504;8.526;2023-09-08T11:07:39;4.70;;;2.42;;
42700;SDS011;28316;49.504;8.526;2023-09-08T11:10:06;8.32;;;2.50;;
42700;SDS011;28316;49.504;8.526;2023-09-08T11:12:33;4.70;;;2.20;;
42700;SDS011;28316;49.504;8.526;2023-09-08T11:15:01;2.97;;;1.90;;
42700;SDS011;28316;49.504;8.526;2023-09-08T11:17:32;4.90;;;2.08;;
42700;SDS011;28316;49.504;8.526;2023-09-08T11:20:00;8.52;;;3.05;;
42700;SDS011;28316;49.504;8.526;2023-09-08T11:22:34;3.53;;;2.03;;
42700;SDS011;28316;49.504;8.526;2023-09-08T11:25:06;3.17;;;1.60;;
42700;SDS011;28316;49.504;8.526;2023-09-08T11:27:33;5.90;;;2.40;;
42700;SDS011;28316;49.504;8.526;2023-09-08T11:29:59;5.35;;;2.35;;
42700;SDS011;28316;49.504;8.526;2023-09-08T11:32:31;5.00;;;2.63;;
42700;SDS011;28316;49.504;8.526;2023-09-08T11:35:03;5.45;;;2.13;;
42700;SDS011;28316;49.504;8.526;2023-09-08T11:37:38;4.00;;;2.22;;
42700;SDS011;28316;49.504;8.526;2023-09-08T11:40:07;3.33;;;1.83;;
42700;SDS011;28316;49.504;8.526;2023-09-08T11:42:37;4.60;;;2.58;;
42700;SDS011;28316;49.504;8.526;2023-09-08T11:45:09;4.47;;;2.20;;
42700;SDS011;28316;49.504;8.526;2023-09-08T11:47:42;4.82;;;2.20;;
42700;SDS011;28316;49.504;8.526;2023-09-08T11:50:12;6.93;;;2.03;;
42700;SDS011;28316;49.504;8.526;2023-09-08T11:52:58;3.88;;;2.20;;
42700;SDS011;28316;49.504;8.526;2023-09-08T11:55:25;3.53;;;2.05;;
42700;SDS011;28316;49.504;8.526;2023-09-08T11:57:54;7.85;;;2.55;;
42700;SDS011;28316;49.504;8.526;2023-09-08T12:00:26;6.35;;;2.78;;
42700;SDS011;28316;49.504;8.526;2023-09-08T12:02:53;3.60;;;2.15;;
42700;SDS011;28316;49.504;8.526;2023-09-08T12:05:20;5.10;;;1.80;;
42700;SDS011;28316;49.504;8.526;2023-09-08T12:07:53;4.95;;;2.13;;
42700;SDS011;28316;49.504;8.526;2023-09-08T12:10:21;3.50;;;1.80;;
42700;SDS011;28316;49.504;8.526;2023-09-08T12:12:49;3.67;;;1.88;;
42700;SDS011;28316;49.504;8.526;2023-09-08T12:15:56;4.97;;;1.88;;
42700;SDS011;28316;49.504;8.526;2023-09-08T12:18:15;3.95;;;2.22;;
42700;SDS011;28316;49.504;8.526;2023-09-08T12:20:41;5.45;;;2.53;;
42700;SDS011;28316;49.504;8.526;2023-09-08T12:23:17;4.00;;;1.83;;
42700;SDS011;28316;49.504;8.526;2023-09-08T12:25:46;3.22;;;1.83;;
42700;SDS011;28316;49.504;8.526;2023-09-08T12:28:20;3.55;;;1.90;;
42700;SDS011;28316;49.504;8.526;2023-09-08T12:30:46;4.10;;;1.92;;
42700;SDS011;28316;49.504;8.526;2023-09-08T12:33:13;3.83;;;1.58;;
42700;SDS011;28316;49.504;8.526;2023-09-08T12:35:45;2.30;;;1.75;;
42700;SDS011;28316;49.504;8.526;2023-09-08T12:38:16;2.92;;;1.58;;
42700;SDS011;28316;49.504;8.526;2023-09-08T12:40:41;2.72;;;1.73;;
42700;SDS011;28316;49.504;8.526;2023-09-08T12:43:07;4.68;;;2.15;;
42700;SDS011;28316;49.504;8.526;2023-09-08T12:45:33;5.38;;;1.63;;
42700;SDS011;28316;49.504;8.526;2023-09-08T12:48:00;4.32;;;1.67;;
42700;SDS011;28316;49.504;8.526;2023-09-08T12:50:27;4.13;;;1.85;;
42700;SDS011;28316;49.504;8.526;2023-09-08T12:52:54;2.45;;;1.30;;
42700;SDS011;28316;49.504;8.526;2023-09-08T12:55:20;2.63;;;1.50;;
42700;SDS011;28316;49.504;8.526;2023-09-08T12:57:46;2.30;;;1.45;;
42700;SDS011;28316;49.504;8.526;2023-09-08T13:00:12;4.00;;;1.90;;
42700;SDS011;28316;49.504;8.526;2023-09-08T13:02:38;3.33;;;2.00;;
42700;SDS011;28316;49.504;8.526;2023-09-08T13:05:05;3.53;;;1.73;;
42700;SDS011;28316;49.504;8.526;2023-09-08T13:07:31;5.80;;;1.70;;
42700;SDS011;28316;49.504;8.526;2023-09-08T13:09:57;3.30;;;1.88;;
42700;SDS011;28316;49.504;8.526;2023-09-08T13:12:22;7.20;;;3.72;;
42700;SDS011;28316;49.504;8.526;2023-09-08T13:14:48;7.72;;;4.40;;
42700;SDS011;28316;49.504;8.526;2023-09-08T13:17:14;3.20;;;1.70;;
42700;SDS011;28316;49.504;8.526;2023-09-08T13:19:40;3.35;;;2.00;;
42700;SDS011;28316;49.504;8.526;2023-09-08T13:22:07;8.15;;;1.70;;
42700;SDS011;28316;49.504;8.526;2023-09-08T13:24:33;5.75;;;2.00;;
42700;SDS011;28316;49.504;8.526;2023-09-08T13:27:01;4.00;;;1.90;;
42700;SDS011;28316;49.504;8.526;2023-09-08T13:29:27;2.75;;;1.80;;
42700;SDS011;28316;49.504;8.526;2023-09-08T13:31:53;3.85;;;1.98;;
42700;SDS011;28316;49.504;8.526;2023-09-08T13:34:20;3.63;;;1.75;;
42700;SDS011;28316;49.504;8.526;2023-09-08T13:36:49;2.72;;;1.45;;
42700;SDS011;28316;49.504;8.526;2023-09-08T13:39:15;2.28;;;1.45;;
42700;SDS011;28316;49.504;8.526;2023-09-08T13:41:53;2.45;;;1.30;;
42700;SDS011;28316;49.504;8.526;2023-09-08T13:44:21;2.78;;;1.38;;
42700;SDS011;28316;49.504;8.526;2023-09-08T13:46:49;2.78;;;1.40;;
42700;SDS011;28316;49.504;8.526;2023-09-08T13:49:16;2.75;;;1.48;;
42700;SDS011;28316;49.504;8.526;2023-09-08T13:51:43;3.03;;;1.77;;
42700;SDS011;28316;49.504;8.526;2023-09-08T13:54:10;2.42;;;1.50;;
42700;SDS011;28316;49.504;8.526;2023-09-08T13:56:40;2.85;;;1.67;;
42700;SDS011;28316;49.504;8.526;2023-09-08T13:59:07;4.13;;;1.30;;
42700;SDS011;28316;49.504;8.526;2023-09-08T14:01:34;3.88;;;1.48;;
42700;SDS011;28316;49.504;8.526;2023-09-08T14:04:01;2.92;;;1.52;;
42700;SDS011;28316;49.504;8.526;2023-09-08T14:06:31;3.33;;;2.20;;
42700;SDS011;28316;49.504;8.526;2023-09-08T14:08:57;3.60;;;1.58;;
42700;SDS011;28316;49.504;8.526;2023-09-08T14:11:23;2.42;;;1.40;;
42700;SDS011;28316;49.504;8.526;2023-09-08T14:13:49;5.07;;;1.73;;
42700;SDS011;28316;49.504;8.526;2023-09-08T14:16:16;3.58;;;2.15;;
42700;SDS011;28316;49.504;8.526;2023-09-08T14:18:43;2.65;;;1.50;;
42700;SDS011;28316;49.504;8.526;2023-09-08T14:21:09;2.97;;;1.70;;
42700;SDS011;28316;49.504;8.526;2023-09-08T14:23:34;3.83;;;1.98;;
42700;SDS011;28316;49.504;8.526;2023-09-08T14:26:02;2.38;;;1.20;;
42700;SDS011;28316;49.504;8.526;2023-09-08T14:28:28;3.20;;;1.80;;
42700;SDS011;28316;49.504;8.526;2023-09-08T14:30:54;4.72;;;2.28;;
42700;SDS011;28316;49.504;8.526;2023-09-08T14:33:19;2.63;;;1.58;;
42700;SDS011;28316;49.504;8.526;2023-09-08T14:35:45;6.28;;;3.35;;
42700;SDS011;28316;49.504;8.526;2023-09-08T14:38:16;7.95;;;3.22;;
42700;SDS011;28316;49.504;8.526;2023-09-08T14:43:22;4.15;;;1.88;;
42700;SDS011;28316;49.504;8.526;2023-09-08T14:45:49;3.58;;;1.60;;
42700;SDS011;28316;49.504;8.526;2023-09-08T14:48:15;6.50;;;1.63;;
42700;SDS011;28316;49.504;8.526;2023-09-08T14:50:40;3.45;;;1.70;;
42700;SDS011;28316;49.504;8.526;2023-09-08T14:53:06;4.68;;;1.75;;
42700;SDS011;28316;49.504;8.526;2023-09-08T14:55:32;2.65;;;1.45;;
42700;SDS011;28316;49.504;8.526;2023-09-08T14:57:59;4.32;;;1.80;;
42700;SDS011;28316;49.504;8.526;2023-09-08T15:00:25;4.30;;;1.67;;
42700;SDS011;28316;49.504;8.526;2023-09-08T15:02:50;2.55;;;1.52;;
42700;SDS011;28316;49.504;8.526;2023-09-08T15:05:16;2.42;;;1.38;;